createdAt,value
2019-04-07T00:00:11.702Z,15.28
2019-04-07T00:02:40.839Z,14.53
2019-04-07T00:05:13.852Z,15.03
2019-04-07T00:07:40.572Z,14.60
2019-04-07T00:10:12.043Z,14.90
2019-04-07T00:12:41.547Z,14.50
2019-04-07T00:15:10.476Z,15.60
2019-04-07T00:17:39.466Z,14.58
2019-04-07T00:20:08.880Z,15.03
2019-04-07T00:22:38.044Z,15.30
2019-04-07T00:25:07.213Z,13.68
2019-04-07T00:27:36.821Z,15.38
2019-04-07T00:30:07.658Z,15.20
2019-04-07T00:32:36.747Z,14.75
2019-04-07T00:35:06.834Z,14.50
2019-04-07T00:37:36.239Z,15.45
2019-04-07T00:40:08.644Z,15.30
2019-04-07T00:42:38.116Z,14.78
2019-04-07T00:45:07.590Z,15.53
2019-04-07T00:47:38.157Z,14.60
2019-04-07T00:50:07.972Z,15.28
2019-04-07T00:52:37.625Z,14.50
2019-04-07T00:55:08.839Z,15.95
2019-04-07T00:57:37.975Z,15.05
2019-04-07T01:00:10.601Z,15.88
2019-04-07T01:02:39.847Z,14.83
2019-04-07T01:05:10.620Z,14.90
2019-04-07T01:07:39.883Z,14.25
2019-04-07T01:10:09.683Z,15.05
2019-04-07T01:12:38.669Z,14.10
2019-04-07T01:15:09.896Z,14.78
2019-04-07T01:17:39.239Z,14.70
2019-04-07T01:20:10.616Z,14.40
2019-04-07T01:25:08.366Z,14.30
2019-04-07T01:27:37.857Z,14.40
2019-04-07T01:30:07.285Z,14.55
2019-04-07T01:32:36.751Z,14.05
2019-04-07T01:35:07.055Z,14.40
2019-04-07T01:37:36.264Z,15.33
2019-04-07T01:40:06.792Z,14.53
2019-04-07T01:42:37.589Z,15.05
2019-04-07T01:45:11.651Z,13.80
2019-04-07T01:47:42.201Z,13.25
2019-04-07T01:50:19.303Z,13.65
2019-04-07T01:52:50.309Z,14.68
2019-04-07T01:55:23.756Z,14.18
2019-04-07T01:58:04.109Z,13.88
2019-04-07T02:00:35.184Z,13.78
2019-04-07T02:03:06.343Z,12.98
2019-04-07T02:08:12.769Z,13.35
2019-04-07T02:10:44.455Z,13.80
2019-04-07T02:13:31.257Z,13.10
2019-04-07T02:16:14.482Z,14.20
2019-04-07T02:18:45.442Z,13.70
2019-04-07T02:21:18.552Z,12.50
2019-04-07T02:23:49.416Z,13.22
2019-04-07T02:26:36.852Z,12.75
2019-04-07T02:29:10.557Z,13.90
2019-04-07T02:31:44.213Z,13.00
2019-04-07T02:34:15.637Z,13.45
2019-04-07T02:36:46.595Z,13.80
2019-04-07T02:39:22.869Z,13.75
2019-04-07T02:42:09.685Z,13.32
2019-04-07T02:44:42.992Z,12.98
2019-04-07T02:47:16.027Z,13.08
2019-04-07T02:49:46.543Z,12.85
2019-04-07T02:52:17.088Z,13.05
2019-04-07T02:54:53.364Z,12.00
2019-04-07T02:57:33.781Z,12.98
2019-04-07T03:00:07.684Z,13.40
2019-04-07T03:02:44.172Z,12.75
2019-04-07T03:05:24.069Z,13.28
2019-04-07T03:08:13.064Z,13.75
2019-04-07T03:10:46.068Z,13.88
2019-04-07T03:13:24.451Z,13.65
2019-04-07T03:16:02.425Z,13.22
2019-04-07T03:18:39.087Z,13.75
2019-04-07T03:21:09.803Z,13.70
2019-04-07T03:23:46.469Z,13.53
2019-04-07T03:26:20.487Z,13.83
2019-04-07T03:29:07.560Z,14.30
2019-04-07T03:31:43.122Z,14.03
2019-04-07T03:34:32.836Z,13.60
2019-04-07T03:37:18.272Z,13.35
2019-04-07T03:39:39.398Z,12.90
2019-04-07T03:42:10.645Z,13.48
2019-04-07T03:44:53.604Z,14.07
2019-04-07T03:47:30.141Z,13.72
2019-04-07T03:50:04.338Z,14.28
2019-04-07T03:52:40.925Z,13.25
2019-04-07T03:55:15.253Z,14.03
2019-04-07T03:57:55.214Z,13.65
2019-04-07T04:00:51.237Z,12.82
2019-04-07T04:03:34.334Z,13.62
2019-04-07T04:06:21.400Z,13.55
2019-04-07T04:09:04.220Z,13.20
2019-04-07T04:11:49.711Z,13.03
2019-04-07T04:14:20.158Z,13.70
2019-04-07T04:16:50.876Z,13.80
2019-04-07T04:19:20.856Z,13.68
2019-04-07T04:21:50.047Z,13.43
2019-04-07T04:24:19.918Z,15.10
2019-04-07T04:26:49.995Z,14.78
2019-04-07T04:29:20.046Z,14.58
2019-04-07T04:31:49.213Z,14.98
2019-04-07T04:34:19.079Z,14.93
2019-04-07T04:36:48.212Z,14.65
2019-04-07T04:39:19.459Z,14.28
2019-04-07T04:41:47.665Z,13.95
2019-04-07T04:44:16.766Z,15.68
2019-04-07T04:46:45.673Z,14.98
2019-04-07T04:49:15.027Z,14.65
2019-04-07T04:51:45.227Z,15.23
2019-04-07T04:54:14.510Z,15.28
2019-04-07T04:56:43.668Z,15.20
2019-04-07T04:59:12.860Z,15.32
2019-04-07T05:01:42.230Z,14.93
2019-04-07T05:04:11.497Z,16.20
2019-04-07T05:06:41.210Z,15.60
2019-04-07T05:09:10.256Z,15.05
2019-04-07T05:11:39.259Z,14.78
2019-04-07T05:14:08.864Z,17.20
2019-04-07T05:16:37.888Z,16.45
2019-04-07T05:19:16.704Z,15.45
2019-04-07T05:21:45.790Z,16.32
2019-04-07T05:24:14.832Z,17.23
2019-04-07T05:26:43.836Z,17.15
2019-04-07T05:29:12.872Z,17.48
2019-04-07T05:31:41.773Z,17.73
2019-04-07T05:34:10.778Z,17.95
2019-04-07T05:36:40.107Z,18.75
2019-04-07T05:39:10.249Z,17.30
2019-04-07T05:41:40.268Z,20.32
2019-04-07T05:44:09.142Z,19.48
2019-04-07T05:46:40.242Z,20.20
2019-04-07T05:49:08.527Z,26.37
2019-04-07T05:51:37.435Z,26.12
2019-04-07T05:54:07.057Z,21.40
2019-04-07T05:56:36.178Z,23.32
2019-04-07T05:59:05.079Z,19.55
2019-04-07T06:01:34.518Z,18.90
2019-04-07T06:04:03.750Z,20.02
2019-04-07T06:06:33.045Z,21.10
2019-04-07T06:09:02.092Z,21.17
2019-04-07T06:11:33.140Z,21.62
2019-04-07T06:14:01.861Z,21.57
2019-04-07T06:16:30.914Z,20.60
2019-04-07T06:19:01.806Z,20.57
2019-04-07T06:21:31.179Z,20.55
2019-04-07T06:24:00.779Z,20.50
2019-04-07T06:26:29.922Z,21.10
2019-04-07T06:28:59.606Z,20.80
2019-04-07T06:31:31.360Z,20.88
2019-04-07T06:33:59.409Z,19.87
2019-04-07T06:36:28.753Z,21.00
2019-04-07T06:38:58.162Z,22.93
2019-04-07T06:41:30.277Z,22.00
2019-04-07T06:44:08.722Z,23.85
2019-04-07T06:46:36.857Z,22.73
2019-04-07T06:49:11.315Z,22.90
2019-04-07T06:52:00.650Z,22.77
2019-04-07T06:54:30.815Z,22.52
2019-04-07T06:57:05.098Z,22.42
2019-04-07T06:59:48.204Z,20.70
2019-04-07T07:02:20.822Z,21.82
2019-04-07T07:04:51.599Z,23.20
2019-04-07T07:07:22.666Z,22.60
2019-04-07T07:12:39.102Z,24.18
2019-04-07T07:15:24.707Z,22.58
2019-04-07T07:18:11.730Z,23.67
2019-04-07T07:20:48.195Z,22.62
2019-04-07T07:23:21.972Z,22.42
2019-04-07T07:25:51.883Z,22.52
2019-04-07T07:28:21.229Z,23.25
2019-04-07T07:30:52.494Z,22.30
2019-04-07T07:33:21.377Z,23.60
2019-04-07T07:35:50.801Z,22.27
2019-04-07T07:38:20.314Z,22.65
2019-04-07T07:40:50.063Z,22.48
2019-04-07T07:43:19.831Z,22.77
2019-04-07T07:45:48.913Z,23.00
2019-04-07T07:48:18.363Z,22.62
2019-04-07T07:50:47.836Z,22.90
2019-04-07T07:53:19.176Z,22.45
2019-04-07T07:55:49.685Z,22.93
2019-04-07T07:58:19.414Z,23.07
2019-04-07T08:00:48.531Z,30.00
2019-04-07T08:03:18.915Z,26.55
2019-04-07T08:05:48.672Z,22.17
2019-04-07T08:08:17.934Z,23.18
2019-04-07T08:10:47.378Z,24.70
2019-04-07T08:13:16.852Z,22.30
2019-04-07T08:15:45.875Z,23.73
2019-04-07T08:18:14.778Z,23.02
2019-04-07T08:20:45.058Z,23.15
2019-04-07T08:23:14.368Z,22.30
2019-04-07T08:25:43.752Z,22.67
2019-04-07T08:28:13.529Z,23.95
2019-04-07T08:30:45.673Z,23.00
2019-04-07T08:33:13.326Z,23.42
2019-04-07T08:35:42.636Z,25.17
2019-04-07T08:38:12.240Z,23.50
2019-04-07T08:40:41.382Z,23.80
2019-04-07T08:43:10.288Z,23.62
2019-04-07T08:45:40.443Z,23.95
2019-04-07T08:48:09.332Z,24.27
2019-04-07T08:50:38.239Z,24.00
2019-04-07T08:53:10.342Z,23.42
2019-04-07T08:55:37.673Z,23.47
2019-04-07T08:58:06.739Z,23.27
2019-04-07T09:00:37.258Z,24.12
2019-04-07T09:03:11.464Z,23.83
2019-04-07T09:05:37.216Z,23.85
2019-04-07T09:08:26.187Z,23.50
2019-04-07T09:10:59.593Z,23.65
2019-04-07T09:13:31.643Z,23.65
2019-04-07T09:16:17.743Z,23.98
2019-04-07T09:19:03.739Z,24.57
2019-04-07T09:21:38.813Z,23.73
2019-04-07T09:24:21.392Z,22.35
2019-04-07T09:26:55.607Z,23.27
2019-04-07T09:29:45.295Z,22.65
2019-04-07T09:32:31.967Z,23.25
2019-04-07T09:35:02.410Z,22.75
2019-04-07T09:37:42.271Z,23.15
2019-04-07T09:40:18.937Z,23.45
2019-04-07T09:42:49.616Z,23.57
2019-04-07T09:45:23.012Z,23.62
2019-04-07T09:47:56.460Z,23.70
2019-04-07T09:50:28.561Z,22.58
2019-04-07T09:53:17.046Z,22.77
2019-04-07T09:55:47.269Z,23.60
2019-04-07T10:00:58.478Z,23.90
2019-04-07T10:03:45.544Z,23.83
2019-04-07T10:06:34.511Z,21.90
2019-04-07T10:09:21.843Z,22.67
2019-04-07T10:12:08.867Z,23.27
2019-04-07T10:14:48.780Z,22.27
2019-04-07T10:17:23.195Z,23.83
2019-04-07T10:19:59.914Z,23.70
2019-04-07T10:22:30.594Z,23.02
2019-04-07T10:25:14.383Z,24.32
2019-04-07T10:27:50.847Z,22.30
2019-04-07T10:30:21.467Z,22.62
2019-04-07T10:32:55.252Z,24.15
2019-04-07T10:35:44.499Z,22.82
2019-04-07T10:38:21.390Z,23.02
2019-04-07T10:40:55.565Z,21.75
2019-04-07T10:43:36.030Z,23.02
2019-04-07T10:46:06.776Z,21.93
2019-04-07T10:48:44.470Z,23.32
2019-04-07T10:51:21.507Z,21.55
2019-04-07T10:53:58.417Z,21.87
2019-04-07T10:56:41.734Z,20.90
2019-04-07T10:59:25.633Z,21.60
2019-04-07T11:02:02.517Z,21.77
2019-04-07T11:04:33.998Z,21.15
2019-04-07T11:07:20.417Z,21.05
2019-04-07T11:09:54.270Z,22.27
2019-04-07T11:12:41.308Z,22.10
2019-04-07T11:15:22.357Z,21.60
2019-04-07T11:18:08.756Z,22.50
2019-04-07T11:20:54.448Z,21.77
2019-04-07T11:23:41.459Z,20.35
2019-04-07T11:26:18.067Z,21.35
2019-04-07T11:28:55.503Z,21.33
2019-04-07T11:31:26.663Z,21.05
2019-04-07T11:36:31.020Z,21.37
2019-04-07T11:39:19.976Z,20.77
2019-04-07T11:42:07.557Z,20.52
2019-04-07T11:44:44.113Z,22.15
2019-04-07T11:47:18.511Z,22.13
2019-04-07T11:49:52.047Z,22.17
2019-04-07T11:52:29.102Z,22.02
2019-04-07T11:55:16.274Z,21.17
2019-04-07T11:58:06.432Z,21.55
2019-04-07T12:00:29.293Z,19.77
2019-04-07T12:03:07.096Z,21.05
2019-04-07T12:05:44.169Z,21.52
2019-04-07T12:08:21.612Z,20.95
2019-04-07T12:11:02.140Z,20.77
2019-04-07T12:13:33.026Z,20.32
2019-04-07T12:16:03.718Z,22.05
2019-04-07T12:18:44.003Z,22.85
2019-04-07T12:21:35.426Z,22.15
2019-04-07T12:24:03.458Z,20.48
2019-04-07T12:26:50.657Z,20.62
2019-04-07T12:29:22.265Z,20.02
2019-04-07T12:31:53.227Z,19.45
2019-04-07T12:34:33.284Z,19.27
2019-04-07T12:37:06.876Z,20.97
2019-04-07T12:39:53.396Z,19.30
2019-04-07T12:42:39.556Z,19.52
2019-04-07T12:45:11.201Z,19.92
2019-04-07T12:47:41.853Z,19.48
2019-04-07T12:50:14.746Z,19.48
2019-04-07T12:52:57.808Z,18.90
2019-04-07T12:55:36.128Z,19.00
2019-04-07T12:58:09.766Z,18.80
2019-04-07T13:00:52.841Z,19.05
2019-04-07T13:03:14.087Z,19.42
2019-04-07T13:05:50.946Z,20.17
2019-04-07T13:08:28.530Z,19.73
2019-04-07T13:11:10.320Z,20.00
2019-04-07T13:13:40.684Z,20.02
2019-04-07T13:16:21.025Z,19.73
2019-04-07T13:18:58.279Z,19.87
2019-04-07T13:21:34.573Z,19.23
2019-04-07T13:24:22.050Z,20.57
2019-04-07T13:26:46.201Z,20.00
2019-04-07T13:29:17.302Z,19.87
2019-04-07T13:34:31.076Z,20.37
2019-04-07T13:37:17.433Z,19.23
2019-04-07T13:39:48.380Z,19.67
2019-04-07T13:42:26.488Z,20.25
2019-04-07T13:45:15.385Z,19.50
2019-04-07T13:47:58.113Z,20.40
2019-04-07T13:50:44.935Z,20.65
2019-04-07T13:53:18.653Z,19.62
2019-04-07T13:56:05.060Z,20.25
2019-04-07T13:58:41.646Z,21.05
2019-04-07T14:01:12.728Z,20.95
2019-04-07T14:06:39.275Z,20.25
2019-04-07T14:09:21.101Z,20.37
2019-04-07T14:12:04.866Z,19.92
2019-04-07T14:14:26.780Z,20.62
2019-04-07T14:16:59.937Z,21.27
2019-04-07T14:19:30.415Z,20.27
2019-04-07T14:22:12.841Z,21.25
2019-04-07T14:24:59.249Z,20.92
2019-04-07T14:27:32.454Z,20.10
2019-04-07T14:30:14.865Z,21.07
2019-04-07T14:32:49.820Z,20.68
2019-04-07T14:35:37.033Z,20.10
2019-04-07T14:38:23.939Z,21.48
2019-04-07T14:41:03.818Z,22.70
2019-04-07T14:43:35.227Z,24.65
2019-04-07T14:46:14.833Z,61.18
2019-04-07T14:49:04.523Z,36.98
2019-04-07T14:51:48.240Z,21.57
2019-04-07T14:54:24.748Z,21.45
2019-04-07T14:57:02.088Z,21.60
2019-04-07T14:59:39.515Z,20.97
2019-04-07T15:02:08.969Z,22.77
2019-04-07T15:04:41.904Z,23.50
2019-04-07T15:07:28.025Z,22.27
2019-04-07T15:10:03.289Z,35.55
2019-04-07T15:12:35.944Z,53.52
2019-04-07T15:15:11.297Z,27.82
2019-04-07T15:17:39.272Z,41.40
2019-04-07T15:20:11.653Z,37.55
2019-04-07T15:25:08.984Z,32.15
2019-04-07T15:27:40.172Z,24.72
2019-04-07T15:30:15.299Z,69.25
2019-04-07T15:32:42.697Z,90.85
2019-04-07T15:35:14.316Z,55.92
2019-04-07T15:37:42.701Z,31.73
2019-04-07T15:40:11.993Z,60.48
2019-04-07T15:42:45.994Z,55.23
2019-04-07T15:45:13.300Z,37.55
2019-04-07T15:47:44.486Z,37.15
2019-04-07T15:50:13.878Z,33.30
2019-04-07T15:52:46.975Z,33.30
2019-04-07T15:55:15.084Z,34.53
2019-04-07T15:57:44.925Z,39.98
2019-04-07T16:00:15.254Z,27.85
2019-04-07T16:02:44.877Z,26.20
2019-04-07T16:05:14.764Z,25.80
2019-04-07T16:07:44.954Z,24.72
2019-04-07T16:10:14.673Z,25.57
2019-04-07T16:12:49.590Z,26.87
2019-04-07T16:15:16.429Z,25.50
2019-04-07T16:17:47.225Z,26.15
2019-04-07T16:20:23.238Z,26.42
2019-04-07T16:22:51.123Z,26.42
2019-04-07T16:25:19.505Z,25.23
2019-04-07T16:27:49.006Z,26.45
2019-04-07T16:30:19.471Z,27.55
2019-04-07T16:32:49.173Z,26.75
2019-04-07T16:35:18.877Z,28.15
2019-04-07T16:37:47.954Z,26.90
2019-04-07T16:40:18.423Z,25.82
2019-04-07T16:43:01.194Z,26.27
2019-04-07T16:45:18.348Z,26.85
2019-04-07T16:47:48.049Z,27.58
2019-04-07T16:50:20.287Z,26.75
2019-04-07T16:52:49.787Z,26.95
2019-04-07T16:55:34.837Z,27.48
2019-04-07T16:58:04.567Z,31.42
2019-04-07T17:00:34.409Z,42.75
2019-04-07T17:03:04.439Z,52.10
2019-04-07T17:05:36.418Z,42.67
2019-04-07T17:08:07.328Z,48.90
2019-04-07T17:10:37.025Z,66.28
2019-04-07T17:13:16.934Z,114.30
2019-04-07T17:15:40.213Z,140.92
2019-04-07T17:18:10.854Z,152.32
2019-04-07T17:20:39.865Z,127.40
2019-04-07T17:23:11.099Z,116.25
2019-04-07T17:25:40.341Z,78.05
2019-04-07T17:28:12.153Z,102.80
2019-04-07T17:30:40.922Z,82.70
2019-04-07T17:33:10.135Z,66.37
2019-04-07T17:35:39.248Z,48.30
2019-04-07T17:38:10.677Z,46.70
2019-04-07T17:40:49.763Z,41.83
2019-04-07T17:43:31.495Z,39.53
2019-04-07T17:46:01.092Z,40.78
2019-04-07T17:48:53.245Z,38.53
2019-04-07T17:51:19.789Z,39.58
2019-04-07T17:53:53.894Z,40.63
2019-04-07T17:56:29.986Z,41.08
2019-04-07T17:59:17.135Z,43.92
2019-04-07T18:01:53.598Z,44.85
2019-04-07T18:04:34.601Z,45.40
2019-04-07T18:07:12.107Z,48.70
2019-04-07T18:09:51.361Z,51.23
2019-04-07T18:12:21.797Z,52.08
2019-04-07T18:15:07.394Z,49.50
2019-04-07T18:17:41.896Z,48.38
2019-04-07T18:20:12.966Z,44.40
2019-04-07T18:22:43.962Z,44.75
2019-04-07T18:25:14.543Z,43.68
2019-04-07T18:27:48.154Z,45.60
2019-04-07T18:30:18.463Z,48.98
2019-04-07T18:33:04.394Z,50.10
2019-04-07T18:35:43.848Z,52.17
2019-04-07T18:38:30.454Z,56.23
2019-04-07T18:41:15.124Z,59.30
2019-04-07T18:43:52.006Z,87.82
2019-04-07T18:46:36.581Z,144.55
2019-04-07T18:49:08.280Z,128.18
2019-04-07T18:51:49.504Z,45.65
2019-04-07T18:54:37.073Z,63.23
2019-04-07T18:57:25.058Z,52.95
2019-04-07T19:00:01.400Z,53.92
2019-04-07T19:02:31.767Z,45.10
2019-04-07T19:05:18.147Z,41.20
2019-04-07T19:07:58.380Z,44.18
2019-04-07T19:10:48.955Z,41.60
2019-04-07T19:13:26.726Z,40.12
2019-04-07T19:16:18.831Z,41.05
2019-04-07T19:18:45.243Z,39.60
2019-04-07T19:21:18.636Z,42.38
2019-04-07T19:23:49.481Z,41.68
2019-04-07T19:26:26.768Z,41.35
2019-04-07T19:29:00.395Z,42.85
2019-04-07T19:31:34.235Z,44.05
2019-04-07T19:34:07.830Z,45.17
2019-04-07T19:36:54.644Z,45.60
2019-04-07T19:39:28.336Z,48.05
2019-04-07T19:42:04.607Z,51.35
2019-04-07T19:44:38.989Z,53.13
2019-04-07T19:47:22.727Z,53.00
2019-04-07T19:50:10.829Z,50.60
2019-04-07T19:52:49.900Z,49.20
2019-04-07T19:55:25.856Z,46.48
2019-04-07T19:58:11.892Z,47.50
2019-04-07T20:00:54.263Z,49.15
2019-04-07T20:03:39.839Z,51.08
2019-04-07T20:06:14.862Z,54.00
2019-04-07T20:09:05.164Z,55.75
2019-04-07T20:11:35.760Z,58.80
2019-04-07T20:14:05.090Z,59.90
2019-04-07T20:16:47.634Z,59.25
2019-04-07T20:19:18.748Z,59.95
2019-04-07T20:21:55.045Z,64.82
2019-04-07T20:24:42.886Z,66.00
2019-04-07T20:27:22.667Z,65.22
2019-04-07T20:29:51.907Z,67.55
2019-04-07T20:32:26.228Z,95.20
2019-04-07T20:35:00.012Z,85.10
2019-04-07T20:37:33.320Z,77.27
2019-04-07T20:40:05.231Z,70.47
2019-04-07T20:42:36.719Z,61.63
2019-04-07T20:47:51.875Z,63.05
2019-04-07T20:50:37.742Z,60.10
2019-04-07T20:53:16.526Z,59.27
2019-04-07T20:55:45.921Z,59.35
2019-04-07T20:58:44.864Z,60.10
2019-04-07T21:01:17.487Z,62.30
2019-04-07T21:03:53.991Z,63.85
2019-04-07T21:06:27.514Z,63.58
2019-04-07T21:09:01.479Z,64.80
2019-04-07T21:11:41.305Z,66.33
2019-04-07T21:14:09.883Z,74.05
2019-04-07T21:16:46.463Z,70.08
2019-04-07T21:19:22.869Z,62.05
2019-04-07T21:21:56.546Z,55.60
2019-04-07T21:24:27.287Z,51.02
2019-04-07T21:26:59.351Z,45.43
2019-04-07T21:29:34.484Z,42.50
2019-04-07T21:32:08.479Z,41.08
2019-04-07T21:34:43.041Z,38.88
2019-04-07T21:37:19.777Z,34.10
2019-04-07T21:40:08.687Z,31.70
2019-04-07T21:42:44.627Z,29.72
2019-04-07T21:45:29.426Z,29.57
2019-04-07T21:48:06.306Z,30.20
2019-04-07T21:50:40.054Z,28.95
2019-04-07T21:53:28.200Z,27.93
2019-04-07T21:56:14.394Z,27.37
2019-04-07T21:58:54.014Z,27.98
2019-04-07T22:01:35.352Z,27.25
2019-04-07T22:06:42.022Z,27.13
2019-04-07T22:09:14.779Z,27.58
2019-04-07T22:11:44.669Z,26.95
2019-04-07T22:14:14.666Z,29.23
2019-04-07T22:16:43.793Z,28.67
2019-04-07T22:19:15.072Z,28.42
2019-04-07T22:21:43.347Z,28.95
2019-04-07T22:24:13.053Z,29.70
2019-04-07T22:26:46.208Z,29.55
2019-04-07T22:29:12.525Z,29.70
2019-04-07T22:31:46.711Z,29.72
2019-04-07T22:34:16.612Z,30.37
2019-04-07T22:36:47.608Z,32.30
2019-04-07T22:39:16.280Z,30.92
2019-04-07T22:41:46.177Z,32.03
2019-04-07T22:44:15.529Z,32.67
2019-04-07T22:46:48.079Z,32.38
2019-04-07T22:49:15.574Z,30.52
2019-04-07T22:51:47.077Z,32.50
2019-04-07T22:54:15.215Z,33.50
2019-04-07T22:56:44.650Z,32.15
2019-04-07T22:59:13.747Z,32.10
2019-04-07T23:01:43.125Z,33.80
2019-04-07T23:04:12.171Z,33.38
2019-04-07T23:06:41.086Z,34.73
2019-04-07T23:09:10.094Z,34.63
2019-04-07T23:11:39.833Z,35.43
2019-04-07T23:14:09.481Z,35.20
2019-04-07T23:16:38.574Z,34.55
2019-04-07T23:19:07.674Z,34.63
2019-04-07T23:21:37.285Z,34.85
2019-04-07T23:24:06.411Z,36.65
2019-04-07T23:26:35.334Z,36.25
2019-04-07T23:29:04.325Z,37.05
2019-04-07T23:31:34.965Z,37.05
2019-04-07T23:34:03.985Z,35.73
2019-04-07T23:36:32.893Z,37.17
2019-04-07T23:39:01.724Z,36.65
2019-04-07T23:41:30.708Z,35.50
2019-04-07T23:43:59.633Z,36.20
2019-04-07T23:46:29.641Z,36.13
2019-04-07T23:48:58.765Z,35.83
2019-04-07T23:51:27.676Z,36.98
2019-04-07T23:54:13.887Z,37.42
2019-04-07T23:56:43.906Z,35.33
2019-04-07T23:59:13.006Z,36.08
